createdAt,value
2023-04-19T00:02:02.930Z,9.20
2023-04-19T00:04:30.306Z,9.20
2023-04-19T00:06:58.574Z,9.20
2023-04-19T00:09:25.435Z,9.20
2023-04-19T00:11:52.888Z,9.20
2023-04-19T00:14:19.979Z,9.20
2023-04-19T00:16:47.024Z,9.20
2023-04-19T00:19:13.794Z,9.20
2023-04-19T00:21:41.352Z,9.20
2023-04-19T00:24:08.161Z,9.30
2023-04-19T00:26:34.970Z,9.30
2023-04-19T00:29:01.911Z,9.30
2023-04-19T00:31:28.707Z,9.30
2023-04-19T00:33:56.602Z,9.30
2023-04-19T00:36:23.702Z,9.30
2023-04-19T00:38:50.484Z,9.30
2023-04-19T00:41:17.224Z,9.20
2023-04-19T00:43:43.992Z,9.10
2023-04-19T00:46:10.878Z,9.00
2023-04-19T00:48:37.748Z,9.00
2023-04-19T00:51:04.985Z,9.10
2023-04-19T00:53:31.758Z,9.00
2023-04-19T00:56:02.284Z,9.00
2023-04-19T00:58:31.557Z,8.90
2023-04-19T01:00:59.939Z,9.00
2023-04-19T01:03:30.305Z,9.00
2023-04-19T01:05:57.371Z,9.00
2023-04-19T01:08:24.283Z,8.90
2023-04-19T01:10:51.020Z,9.00
2023-04-19T01:13:17.743Z,9.00
2023-04-19T01:15:44.639Z,9.00
2023-04-19T01:18:11.402Z,8.90
2023-04-19T01:20:38.177Z,8.90
2023-04-19T01:23:04.955Z,9.00
2023-04-19T01:25:31.855Z,9.00
2023-04-19T01:27:58.635Z,8.90
2023-04-19T01:30:25.344Z,8.90
2023-04-19T01:32:52.085Z,9.00
2023-04-19T01:35:19.068Z,9.00
2023-04-19T01:37:45.774Z,9.00
2023-04-19T01:40:12.943Z,9.10
2023-04-19T01:42:39.637Z,9.10
2023-04-19T01:45:06.838Z,9.00
2023-04-19T01:47:33.686Z,8.90
2023-04-19T01:50:00.412Z,8.90
2023-04-19T01:52:27.086Z,9.00
2023-04-19T01:54:53.849Z,9.00
2023-04-19T01:57:20.651Z,9.00
2023-04-19T01:59:47.331Z,9.10
2023-04-19T02:02:14.136Z,9.10
2023-04-19T02:04:40.865Z,9.00
2023-04-19T02:07:07.984Z,8.90
2023-04-19T02:09:38.802Z,8.90
2023-04-19T02:12:06.095Z,8.90
2023-04-19T02:14:32.903Z,8.90
2023-04-19T02:16:59.652Z,8.90
2023-04-19T02:19:26.352Z,8.90
2023-04-19T02:21:57.537Z,9.00
2023-04-19T02:24:24.854Z,9.00
2023-04-19T02:26:51.739Z,8.90
2023-04-19T02:29:18.643Z,9.00
2023-04-19T02:31:46.570Z,9.00
2023-04-19T02:34:13.731Z,8.90
2023-04-19T02:36:40.707Z,9.00
2023-04-19T02:39:07.394Z,8.90
2023-04-19T02:41:34.124Z,8.90
2023-04-19T02:44:00.909Z,8.80
2023-04-19T02:46:27.726Z,8.80
2023-04-19T02:48:54.520Z,8.80
2023-04-19T02:51:21.365Z,8.80
2023-04-19T02:53:48.117Z,8.90
2023-04-19T02:56:15.645Z,8.90
2023-04-19T02:58:42.353Z,8.80
2023-04-19T03:01:09.569Z,8.80
2023-04-19T03:03:36.606Z,8.80
2023-04-19T03:06:03.528Z,8.80
2023-04-19T03:08:30.362Z,8.60
2023-04-19T03:10:57.094Z,8.70
2023-04-19T03:13:24.231Z,8.70
2023-04-19T03:15:51.071Z,8.70
2023-04-19T03:18:17.990Z,8.70
2023-04-19T03:20:44.865Z,8.70
2023-04-19T03:23:11.544Z,8.70
2023-04-19T03:25:38.248Z,8.70
2023-04-19T03:28:05.413Z,8.80
2023-04-19T03:30:32.177Z,8.70
2023-04-19T03:33:00.128Z,8.80
2023-04-19T03:35:27.048Z,8.80
2023-04-19T03:37:53.829Z,8.70
2023-04-19T03:40:21.000Z,8.70
2023-04-19T03:42:47.747Z,8.70
2023-04-19T03:45:14.486Z,8.60
2023-04-19T03:47:41.354Z,8.60
2023-04-19T03:50:08.784Z,8.70
2023-04-19T03:52:35.531Z,8.70
2023-04-19T03:55:02.449Z,8.70
2023-04-19T03:57:29.173Z,8.70
2023-04-19T03:59:55.943Z,8.70
2023-04-19T04:02:22.795Z,8.70
2023-04-19T04:04:55.802Z,8.80
2023-04-19T04:07:23.256Z,8.80
2023-04-19T04:09:50.283Z,8.80
2023-04-19T04:12:17.010Z,8.70
2023-04-19T04:14:43.984Z,8.70
2023-04-19T04:17:10.679Z,8.60
2023-04-19T04:19:37.460Z,8.60
2023-04-19T04:22:04.905Z,8.70
2023-04-19T04:24:38.339Z,8.70
2023-04-19T04:27:05.804Z,8.60
2023-04-19T04:29:33.215Z,8.70
2023-04-19T04:32:00.210Z,8.70
2023-04-19T04:34:26.946Z,8.70
2023-04-19T04:36:54.122Z,8.70
2023-04-19T04:39:21.033Z,8.70
2023-04-19T04:41:49.623Z,8.70
2023-04-19T04:44:16.690Z,8.70
2023-04-19T04:46:43.516Z,8.70
2023-04-19T04:49:10.454Z,8.60
2023-04-19T04:51:37.692Z,8.60
2023-04-19T04:54:05.528Z,8.60
2023-04-19T04:56:32.427Z,8.60
2023-04-19T04:58:59.316Z,8.60
2023-04-19T05:01:26.145Z,8.60
2023-04-19T05:03:52.902Z,8.50
2023-04-19T05:06:19.677Z,8.60
2023-04-19T05:08:46.374Z,8.60
2023-04-19T05:11:13.201Z,8.50
2023-04-19T05:13:39.889Z,8.60
2023-04-19T05:16:06.929Z,8.60
2023-04-19T05:18:33.709Z,8.60
2023-04-19T05:21:00.497Z,8.60
2023-04-19T05:23:27.221Z,8.60
2023-04-19T05:25:53.982Z,8.60
2023-04-19T05:28:20.723Z,8.60
2023-04-19T05:30:47.845Z,8.60
2023-04-19T05:33:14.712Z,8.60
2023-04-19T05:35:41.583Z,8.60
2023-04-19T05:38:08.297Z,8.70
2023-04-19T05:40:35.756Z,8.70
2023-04-19T05:43:02.473Z,8.70
2023-04-19T05:45:29.229Z,8.70
2023-04-19T05:47:56.328Z,8.70
2023-04-19T05:50:23.139Z,8.70
2023-04-19T05:52:50.108Z,8.70
2023-04-19T05:55:18.092Z,8.60
2023-04-19T05:57:44.927Z,8.60
2023-04-19T06:00:12.713Z,8.50
2023-04-19T06:02:39.473Z,8.50
2023-04-19T06:05:10.315Z,8.60
2023-04-19T06:07:43.403Z,8.60
2023-04-19T06:10:17.652Z,8.60
2023-04-19T06:12:44.894Z,8.60
2023-04-19T06:15:12.467Z,8.60
2023-04-19T06:17:39.360Z,8.60
2023-04-19T06:20:08.332Z,8.60
2023-04-19T06:22:35.247Z,8.70
2023-04-19T06:25:02.560Z,8.70
2023-04-19T06:27:29.360Z,8.70
2023-04-19T06:29:59.703Z,8.70
2023-04-19T06:32:26.831Z,8.70
2023-04-19T06:34:53.691Z,8.80
2023-04-19T06:37:20.507Z,8.80
2023-04-19T06:39:47.291Z,8.90
2023-04-19T06:42:14.128Z,8.90
2023-04-19T06:44:40.929Z,8.90
2023-04-19T06:47:07.732Z,8.80
2023-04-19T06:49:34.960Z,8.80
2023-04-19T06:52:01.887Z,8.90
2023-04-19T06:54:28.824Z,9.00
2023-04-19T06:56:56.767Z,9.10
2023-04-19T06:59:25.167Z,9.10
2023-04-19T07:01:51.974Z,9.10
2023-04-19T07:04:19.140Z,9.00
2023-04-19T07:06:49.901Z,9.10
2023-04-19T07:09:16.700Z,9.20
2023-04-19T07:11:43.476Z,9.30
2023-04-19T07:14:10.319Z,9.30
2023-04-19T07:16:37.488Z,9.40
2023-04-19T07:19:04.237Z,9.30
2023-04-19T07:21:33.504Z,9.40
2023-04-19T07:24:00.437Z,9.40
2023-04-19T07:26:27.226Z,9.30
2023-04-19T07:28:54.014Z,9.40
2023-04-19T07:31:21.233Z,9.50
2023-04-19T07:33:48.050Z,9.80
2023-04-19T07:36:14.756Z,9.90
2023-04-19T07:38:41.694Z,10.00
2023-04-19T07:41:09.097Z,10.00
2023-04-19T07:43:37.295Z,10.10
2023-04-19T07:46:14.064Z,10.00
2023-04-19T07:48:40.987Z,10.00
2023-04-19T07:51:12.111Z,10.10
2023-04-19T07:53:40.137Z,10.00
2023-04-19T07:56:08.071Z,9.90
2023-04-19T07:58:36.050Z,9.90
2023-04-19T08:01:03.943Z,10.10
2023-04-19T08:03:32.253Z,10.10
2023-04-19T08:06:01.944Z,10.30
2023-04-19T08:08:28.706Z,10.30
2023-04-19T08:10:55.405Z,10.50
2023-04-19T08:13:22.390Z,10.70
2023-04-19T08:18:19.203Z,11.10
2023-04-19T08:20:48.979Z,11.20
2023-04-19T08:23:24.200Z,11.20
2023-04-19T08:25:54.439Z,11.20
2023-04-19T08:28:21.213Z,11.10
2023-04-19T08:30:48.953Z,11.10
2023-04-19T08:33:15.989Z,11.20
2023-04-19T08:35:42.841Z,11.30
2023-04-19T08:38:09.702Z,11.40
2023-04-19T08:40:41.649Z,11.30
2023-04-19T08:43:09.772Z,11.20
2023-04-19T08:45:37.131Z,11.30
2023-04-19T08:48:04.955Z,11.20
2023-04-19T08:50:38.946Z,11.20
2023-04-19T08:56:03.373Z,11.40
2023-04-19T08:58:52.009Z,11.20
2023-04-19T09:01:33.875Z,11.20
2023-04-19T09:04:26.588Z,11.40
2023-04-19T09:06:52.345Z,11.80
2023-04-19T09:11:58.400Z,12.10
2023-04-19T09:14:26.875Z,12.10
2023-04-19T09:16:54.190Z,12.10
2023-04-19T09:19:24.964Z,12.30
2023-04-19T09:21:54.560Z,12.20
2023-04-19T09:25:13.942Z,12.10
2023-04-19T09:27:34.100Z,12.10
2023-04-19T09:30:02.164Z,12.00
2023-04-19T09:32:30.086Z,12.00
2023-04-19T09:35:00.486Z,12.00
2023-04-19T09:39:57.208Z,11.50
2023-04-19T09:42:47.353Z,11.60
2023-04-19T09:47:41.049Z,11.80
2023-04-19T09:50:21.764Z,12.00
2023-04-19T09:52:50.942Z,12.00
2023-04-19T09:57:48.920Z,12.00
2023-04-19T10:00:16.148Z,12.20
2023-04-19T10:02:43.619Z,12.30
2023-04-19T10:05:22.342Z,12.40
2023-04-19T10:07:50.369Z,12.50
2023-04-19T10:10:20.705Z,12.60
2023-04-19T10:13:11.657Z,12.80
2023-04-19T10:15:50.122Z,12.90
2023-04-19T10:18:19.562Z,13.00
2023-04-19T10:20:52.688Z,13.40
2023-04-19T10:23:21.878Z,13.70
2023-04-19T10:25:48.827Z,13.70
2023-04-19T10:28:16.660Z,13.80
2023-04-19T10:31:03.021Z,13.60
2023-04-19T10:33:34.283Z,13.50
2023-04-19T10:36:01.837Z,13.60
2023-04-19T10:38:43.182Z,13.20
2023-04-19T10:41:16.875Z,13.00
2023-04-19T10:43:58.190Z,12.80
2023-04-19T10:46:26.136Z,12.80
2023-04-19T10:49:03.413Z,12.70
2023-04-19T10:51:38.659Z,12.50
2023-04-19T10:54:07.305Z,12.50
2023-04-19T10:56:34.239Z,12.30
2023-04-19T10:59:01.312Z,12.20
2023-04-19T11:01:44.881Z,12.10
2023-04-19T11:04:19.278Z,11.90
2023-04-19T11:06:52.458Z,11.60
2023-04-19T11:09:27.172Z,11.40
2023-04-19T11:11:57.344Z,11.30
2023-04-19T11:14:24.613Z,11.20
2023-04-19T11:16:51.393Z,11.00
2023-04-19T11:19:19.450Z,11.00
2023-04-19T11:21:46.996Z,10.90
2023-04-19T11:24:16.125Z,10.80
2023-04-19T11:26:43.948Z,10.80
2023-04-19T11:29:10.853Z,10.90
2023-04-19T11:31:37.825Z,10.90
2023-04-19T11:34:04.880Z,10.90
2023-04-19T11:36:37.007Z,10.90
2023-04-19T11:39:06.930Z,10.90
2023-04-19T11:41:39.844Z,10.90
2023-04-19T11:44:22.680Z,11.00
2023-04-19T11:47:07.491Z,11.00
2023-04-19T11:49:34.410Z,11.10
2023-04-19T11:52:05.500Z,11.10
2023-04-19T11:54:33.153Z,11.10
2023-04-19T11:57:07.721Z,11.10
2023-04-19T11:59:36.324Z,11.00
2023-04-19T12:02:11.940Z,11.00
2023-04-19T12:04:39.788Z,11.00
2023-04-19T12:07:07.262Z,10.90
2023-04-19T12:09:36.134Z,10.80
2023-04-19T12:12:03.408Z,10.80
2023-04-19T12:14:31.520Z,10.80
2023-04-19T12:17:07.871Z,10.70
2023-04-19T12:19:46.280Z,10.70
2023-04-19T12:22:20.369Z,10.60
2023-04-19T12:24:47.669Z,10.60
2023-04-19T12:27:18.183Z,10.40
2023-04-19T12:29:46.089Z,10.20
2023-04-19T12:32:13.429Z,9.90
2023-04-19T12:34:40.160Z,9.90
2023-04-19T12:37:06.876Z,9.60
2023-04-19T12:39:33.620Z,9.60
2023-04-19T12:42:01.372Z,9.50
2023-04-19T12:44:28.220Z,9.50
2023-04-19T12:46:57.561Z,9.40
2023-04-19T12:49:24.799Z,9.30
2023-04-19T12:51:51.519Z,9.30
2023-04-19T12:54:18.358Z,9.10
2023-04-19T12:56:45.107Z,9.20
2023-04-19T12:59:11.898Z,9.20
2023-04-19T13:01:38.865Z,9.30
2023-04-19T13:04:05.941Z,9.30
2023-04-19T13:06:32.906Z,9.20
2023-04-19T13:09:01.088Z,9.20
2023-04-19T13:11:28.401Z,9.20
2023-04-19T13:13:55.287Z,9.20
2023-04-19T13:16:22.648Z,9.10
2023-04-19T13:18:50.979Z,9.20
2023-04-19T13:21:18.064Z,9.10
2023-04-19T13:23:45.218Z,9.00
2023-04-19T13:26:12.081Z,9.00
2023-04-19T13:28:40.621Z,9.00
2023-04-19T13:31:07.362Z,9.00
2023-04-19T13:33:34.432Z,9.00
2023-04-19T13:36:01.314Z,9.00
2023-04-19T13:38:28.090Z,9.00
2023-04-19T13:40:54.798Z,8.90
2023-04-19T13:43:21.890Z,8.80
2023-04-19T13:45:48.657Z,8.80
2023-04-19T13:48:15.400Z,8.60
2023-04-19T13:50:42.171Z,8.50
2023-04-19T13:53:09.054Z,8.30
2023-04-19T13:55:36.386Z,8.20
2023-04-19T13:58:03.121Z,8.20
2023-04-19T14:00:30.134Z,8.10
2023-04-19T14:02:57.052Z,8.10
2023-04-19T14:05:24.204Z,8.20
2023-04-19T14:07:50.935Z,8.20
2023-04-19T14:10:17.955Z,8.00
2023-04-19T14:12:45.103Z,7.90
2023-04-19T14:15:12.669Z,8.00
2023-04-19T14:17:39.521Z,7.80
2023-04-19T14:20:07.583Z,7.70
2023-04-19T14:22:35.451Z,7.70
2023-04-19T14:25:03.991Z,7.60
2023-04-19T14:27:31.022Z,7.60
2023-04-19T14:29:58.214Z,7.50
2023-04-19T14:32:27.094Z,7.60
2023-04-19T14:34:55.904Z,7.50
2023-04-19T14:37:24.291Z,7.50
2023-04-19T14:39:51.405Z,7.40
2023-04-19T14:42:20.132Z,7.40
2023-04-19T14:44:53.251Z,7.40
2023-04-19T14:47:21.156Z,7.40
2023-04-19T14:49:48.083Z,7.40
2023-04-19T14:52:14.993Z,7.40
2023-04-19T14:54:42.297Z,7.40
2023-04-19T14:57:09.229Z,7.40
2023-04-19T14:59:35.971Z,7.50
2023-04-19T15:02:02.907Z,7.40
2023-04-19T15:04:29.912Z,7.50
2023-04-19T15:06:56.797Z,7.50
2023-04-19T15:09:23.728Z,7.60
2023-04-19T15:11:50.505Z,7.60
2023-04-19T15:14:17.721Z,7.70
2023-04-19T15:16:44.502Z,7.70
2023-04-19T15:19:11.238Z,7.70
2023-04-19T15:21:37.993Z,7.60
2023-04-19T15:24:06.101Z,7.50
2023-04-19T15:26:33.146Z,7.50
2023-04-19T15:29:00.002Z,7.50
2023-04-19T15:31:27.003Z,7.40
2023-04-19T15:33:54.196Z,7.40
2023-04-19T15:36:20.913Z,7.30
2023-04-19T15:38:47.720Z,7.30
2023-04-19T15:41:14.441Z,7.30
2023-04-19T15:43:41.218Z,7.20
2023-04-19T15:46:15.533Z,7.20
2023-04-19T15:48:43.980Z,7.20
2023-04-19T15:51:14.753Z,7.30
2023-04-19T15:53:41.861Z,7.30
2023-04-19T15:56:08.652Z,7.30
2023-04-19T15:58:36.550Z,7.30
2023-04-19T16:01:03.314Z,7.20
2023-04-19T16:03:30.319Z,7.20
2023-04-19T16:05:57.154Z,7.10
2023-04-19T16:08:23.946Z,7.00
2023-04-19T16:10:50.682Z,7.00
2023-04-19T16:13:17.552Z,7.00
2023-04-19T16:15:44.882Z,7.00
2023-04-19T16:18:13.058Z,7.10
2023-04-19T16:20:40.597Z,7.10
2023-04-19T16:23:07.542Z,7.10
2023-04-19T16:25:34.713Z,7.00
2023-04-19T16:28:01.620Z,7.00
2023-04-19T16:30:28.505Z,7.10
2023-04-19T16:32:56.614Z,7.00
2023-04-19T16:35:24.147Z,7.10
2023-04-19T16:37:50.974Z,7.10
2023-04-19T16:40:17.865Z,7.10
2023-04-19T16:42:44.621Z,7.20
2023-04-19T16:45:11.415Z,7.30
2023-04-19T16:47:38.321Z,7.40
2023-04-19T16:50:06.218Z,7.50
2023-04-19T16:52:35.444Z,7.60
2023-04-19T16:55:04.303Z,7.50
2023-04-19T16:57:32.016Z,7.50
2023-04-19T16:59:59.059Z,7.60
2023-04-19T17:02:26.118Z,7.70
2023-04-19T17:04:53.128Z,7.80
2023-04-19T17:07:19.940Z,7.80
2023-04-19T17:09:46.826Z,7.80
2023-04-19T17:12:13.797Z,7.70
2023-04-19T17:14:40.830Z,7.60
2023-04-19T17:17:07.690Z,7.50
2023-04-19T17:19:34.462Z,7.50
2023-04-19T17:22:05.265Z,7.50
2023-04-19T17:24:33.247Z,7.40
2023-04-19T17:27:00.320Z,7.40
2023-04-19T17:29:27.518Z,7.30
2023-04-19T17:31:54.617Z,7.30
2023-04-19T17:34:21.442Z,7.10
2023-04-19T17:36:48.177Z,7.00
2023-04-19T17:39:15.201Z,7.00
2023-04-19T17:41:42.189Z,7.00
2023-04-19T17:44:08.901Z,7.00
2023-04-19T17:46:35.795Z,7.00
2023-04-19T17:49:02.719Z,7.00
2023-04-19T17:51:29.429Z,7.00
2023-04-19T17:53:56.510Z,7.00
2023-04-19T17:56:24.162Z,6.90
2023-04-19T17:58:51.324Z,7.00
2023-04-19T18:01:18.185Z,6.90
2023-04-19T18:03:45.168Z,6.90
2023-04-19T18:06:12.384Z,7.00
2023-04-19T18:08:39.186Z,7.00
2023-04-19T18:11:06.913Z,6.90
2023-04-19T18:13:33.727Z,7.00
2023-04-19T18:16:00.656Z,7.00
2023-04-19T18:18:27.514Z,7.00
2023-04-19T18:20:54.323Z,7.10
2023-04-19T18:23:23.447Z,7.10
2023-04-19T18:25:55.929Z,7.20
2023-04-19T18:28:22.768Z,7.30
2023-04-19T18:30:49.591Z,7.20
2023-04-19T18:33:16.382Z,7.10
2023-04-19T18:35:43.209Z,7.20
2023-04-19T18:38:10.001Z,7.20
2023-04-19T18:40:36.755Z,7.30
2023-04-19T18:43:03.582Z,7.40
2023-04-19T18:45:31.400Z,7.40
2023-04-19T18:48:00.083Z,7.50
2023-04-19T18:50:26.922Z,7.50
2023-04-19T18:52:53.812Z,7.50
2023-04-19T18:55:20.707Z,7.40
2023-04-19T18:57:48.481Z,7.30
2023-04-19T19:00:15.952Z,7.30
2023-04-19T19:02:43.961Z,7.30
2023-04-19T19:05:13.922Z,7.40
2023-04-19T19:07:41.792Z,7.40
2023-04-19T19:10:19.063Z,7.40
2023-04-19T19:12:48.920Z,7.40
2023-04-19T19:15:15.888Z,7.40
2023-04-19T19:17:43.291Z,7.40
2023-04-19T19:20:10.480Z,7.30
2023-04-19T19:22:37.317Z,7.20
2023-04-19T19:25:04.560Z,7.00
2023-04-19T19:27:31.601Z,6.90
2023-04-19T19:29:58.909Z,6.90
2023-04-19T19:32:25.975Z,7.00
2023-04-19T19:34:56.255Z,7.20
2023-04-19T19:37:27.803Z,7.20
2023-04-19T19:39:56.448Z,7.30
2023-04-19T19:42:23.740Z,7.40
2023-04-19T19:44:54.516Z,7.40
2023-04-19T19:47:22.131Z,7.40
2023-04-19T19:50:21.314Z,7.40
2023-04-19T19:52:35.978Z,7.40
2023-04-19T19:55:02.827Z,7.30
2023-04-19T19:58:20.661Z,7.30
2023-04-19T20:05:18.702Z,7.00
2023-04-19T20:08:01.134Z,6.90
2023-04-19T20:10:32.884Z,6.90
2023-04-19T20:13:01.535Z,6.90
2023-04-19T20:15:29.887Z,6.90
2023-04-19T20:17:56.698Z,7.00
2023-04-19T20:20:26.407Z,7.00
2023-04-19T20:22:53.316Z,7.10
2023-04-19T20:25:20.163Z,7.10
2023-04-19T20:27:46.892Z,7.10
2023-04-19T20:30:14.096Z,7.00
2023-04-19T20:32:42.721Z,7.00
2023-04-19T20:35:12.236Z,7.10
2023-04-19T20:37:40.340Z,7.10
2023-04-19T20:40:12.154Z,7.10
2023-04-19T20:42:39.059Z,7.10
2023-04-19T20:45:07.851Z,7.10
2023-04-19T20:47:34.604Z,7.00
2023-04-19T20:50:01.374Z,7.00
2023-04-19T20:52:28.103Z,7.00
2023-04-19T20:54:56.626Z,7.00
2023-04-19T20:57:23.347Z,7.00
2023-04-19T20:59:50.908Z,7.00
2023-04-19T21:02:18.055Z,6.90
2023-04-19T21:04:44.869Z,6.80
2023-04-19T21:07:11.562Z,6.80
2023-04-19T21:09:38.371Z,6.90
2023-04-19T21:12:05.156Z,6.90
2023-04-19T21:14:33.614Z,6.90
2023-04-19T21:17:01.849Z,6.90
2023-04-19T21:19:28.914Z,6.90
2023-04-19T21:21:55.867Z,6.90
2023-04-19T21:24:22.861Z,6.80
2023-04-19T21:26:49.584Z,6.80
2023-04-19T21:29:16.821Z,6.80
2023-04-19T21:31:43.875Z,6.80
2023-04-19T21:34:10.651Z,6.80
2023-04-19T21:36:37.439Z,6.80
2023-04-19T21:39:04.292Z,6.80
2023-04-19T21:41:31.056Z,6.80
2023-04-19T21:43:57.763Z,6.70
2023-04-19T21:46:24.547Z,6.80
2023-04-19T21:48:53.512Z,6.80
2023-04-19T21:51:21.790Z,6.80
2023-04-19T21:53:48.521Z,6.70
2023-04-19T21:56:15.326Z,6.70
2023-04-19T21:58:42.174Z,6.70
2023-04-19T22:01:10.073Z,6.70
2023-04-19T22:03:37.954Z,6.70
2023-04-19T22:06:06.562Z,6.70
2023-04-19T22:08:34.218Z,6.60
2023-04-19T22:11:01.631Z,6.60
2023-04-19T22:13:28.447Z,6.70
2023-04-19T22:15:57.205Z,6.60
2023-04-19T22:18:24.216Z,6.50
2023-04-19T22:20:52.149Z,6.40
2023-04-19T22:23:19.109Z,6.40
2023-04-19T22:25:45.990Z,6.40
2023-04-19T22:28:12.871Z,6.40
2023-04-19T22:30:39.591Z,6.40
2023-04-19T22:33:06.595Z,6.30
2023-04-19T22:35:33.566Z,6.30
2023-04-19T22:38:00.390Z,6.10
2023-04-19T22:40:27.186Z,6.10
2023-04-19T22:42:53.997Z,6.10
2023-04-19T22:45:23.455Z,6.20
2023-04-19T22:47:50.255Z,6.20
2023-04-19T22:50:17.104Z,6.30
2023-04-19T22:52:44.606Z,6.30
2023-04-19T22:55:11.635Z,6.30
2023-04-19T22:57:38.439Z,6.20
2023-04-19T23:00:07.099Z,6.20
2023-04-19T23:02:33.915Z,6.30
2023-04-19T23:05:00.833Z,6.30
2023-04-19T23:07:28.766Z,6.30
2023-04-19T23:09:56.125Z,6.30
2023-04-19T23:12:24.125Z,6.20
2023-04-19T23:14:51.163Z,6.20
2023-04-19T23:17:18.215Z,6.10
2023-04-19T23:19:45.187Z,6.10
2023-04-19T23:22:11.946Z,6.20
2023-04-19T23:24:38.689Z,6.30
2023-04-19T23:27:05.745Z,6.30
2023-04-19T23:29:32.535Z,6.30
2023-04-19T23:32:01.093Z,6.30
2023-04-19T23:34:27.872Z,6.20
2023-04-19T23:36:54.607Z,6.30
2023-04-19T23:39:21.552Z,6.30
2023-04-19T23:41:48.253Z,6.40
2023-04-19T23:44:15.038Z,6.40
2023-04-19T23:46:42.002Z,6.50
2023-04-19T23:49:08.813Z,6.50
2023-04-19T23:51:36.352Z,6.50
2023-04-19T23:54:03.423Z,6.50
2023-04-19T23:56:30.467Z,6.60
2023-04-19T23:58:57.572Z,6.60
